Wye Mills, MD

12:54 AM EST on February 13, 2016 (GMT -0500)
Tuckahoe Neck | | Change Station
CLOSE
Current Station
Personal Weather Station
Location: Denton, MD
Elevation: 36 ft
Nearby Weather Stations

Elev 36 ft 38.83 °N, 75.91 °W | Updated 4 minutes ago

Overcast
Overcast
26.3 °F
Feels Like 19 °F
N
6.0
Wind Variable Wind from West

Today
High -- | Low -- °F
--% Chance of Precip.
Yesterday
High -- | Low -- °F
Precip. -- in
Pressure 30.03 in
Visibility 10.0 miles
Clouds Scattered Clouds 7500 ft
Scattered Clouds 9500 ft
Windchill 19 °F
Dew Point 20 °F
Humidity 76%
Rainfall 0.00 in
Snow Depth Not available.
6:57 AM 5:38 PM
Waxing Crescent, 27% visible
METAR KESN 130541Z AUTO 30009KT 10SM SCT075 SCT095 M02/M08 A3003 RMK AO2 T10211080
Pressure 30.03 in
Visibility 10.0 miles
Clouds Scattered Clouds 7500 ft
Scattered Clouds 9500 ft
Windchill 19 °F
Dew Point 20 °F
Humidity 76%
Rainfall 0.00 in
Snow Depth Not available.
6:57 AM 5:38 PM
Waxing Crescent, 27% visible
METAR KESN 130541Z AUTO 30009KT 10SM SCT075 SCT095 M02/M08 A3003 RMK AO2 T10211080

10-Day Weather Forecast

Almanac

Astronomy

Feb. 13, 2016 Rise Set
Actual Time
Civil Twilight
Nautical Twilight
Astronomical Twilight
Moon
Length of Visible Light
Length of Day
Tomorrow will be .
, % of the Moon is Illuminated

Today's Extremes

State Highs State Lows

Community

WunderPhotos

Upload Photos

1,892,507 photos uploaded!

WunderBlog® & News

Nearby

Air Quality

  Air Quality AQ Index Pollutant
Not available.

Snow Depth

Station Depth Elevation

Earthquake Activity

City Distance Mag. Time & Date
Minimum magnitude displayed is 2.5.

Coastal Water Temperatures

Place Temperature

Stations

Nearby Weather Stations

Station Location Temp. Windchill Dew Point Humidity Wind Precip. Elev Updated Type
                   

Watches & Warnings

There are currently no watches in effect.